Погода Татариновона неделю

Тверская область, Россия

22 - 28 мая
  • 22мая
    Сегодня
    +7°
    +22°
    Ясно и безоблачно
    ВремяПогодаТемператураВлажностьДавлениеВетер, м/сВероятность осадков
    00:00Ясно и безоблачно+11°C51 %747 мм3.0 м/с2 %
    03:00Ясно и безоблачно+8°C61 %748 мм2.7 м/с2 %
    06:00Ясно и безоблачно+9°C66 %748 мм2.8 м/с2 %
    09:00Ясно и безоблачно+16°C50 %749 мм3.0 м/с2 %
    12:00Ясно и безоблачно+20°C36 %749 мм3.4 м/с2 %
    15:00Ясно и безоблачно+21°C34 %749 мм3.2 м/с2 %
    18:00Ясно и безоблачно+21°C37 %749 мм3.4 м/с2 %
    21:00Ясно и безоблачно+16°C51 %750 мм2.8 м/с2 %
  • 23мая
    Четверг
    +7°
    +21°
    Ясно и безоблачно
    ВремяПогодаТемператураВлажностьДавлениеВетер, м/сВероятность осадков
    00:00Ясно и безоблачно+11°C56 %750 мм3.8 м/с2 %
    03:00Ясно и безоблачно+8°C61 %751 мм2.9 м/с2 %
    06:00Ясно и безоблачно+9°C64 %752 мм2.9 м/с2 %
    09:00Ясно и безоблачно+16°C46 %753 мм2.8 м/с2 %
    12:00Ясно и безоблачно+19°C35 %753 мм3.8 м/с2 %
    15:00Ясно и безоблачно+20°C35 %753 мм3.3 м/с2 %
    18:00Ясно и безоблачно+20°C38 %753 мм2.8 м/с2 %
    21:00Ясно и безоблачно+15°C57 %753 мм2.0 м/с2 %
  • 24мая
    Пятница
    +7°
    +22°
    Ясно и безоблачно
    ВремяПогодаТемператураВлажностьДавлениеВетер, м/сВероятность осадков
    00:00Небольшая облачность+10°C62 %754 мм2.9 м/с2 %
    03:00Практически безоблачно+8°C66 %755 мм2.7 м/с2 %
    06:00Ясно и безоблачно+8°C71 %755 мм2.2 м/с2 %
    09:00Ясно и безоблачно+16°C47 %756 мм2.3 м/с2 %
    12:00Ясно и безоблачно+20°C37 %756 мм3.5 м/с2 %
    15:00Ясно и безоблачно+20°C34 %755 мм3.7 м/с2 %
    18:00Ясно и безоблачно+21°C33 %755 мм3.3 м/с2 %
    21:00Ясно и безоблачно+16°C51 %754 мм2.7 м/с2 %
  • 25мая
    Суббота
    +10°
    +24°
    Ясно и безоблачно
    ВремяПогодаТемператураВлажностьДавлениеВетер, м/сВероятность осадков
    00:00Ясно и безоблачно+10°C60 %754 мм3.0 м/с2 %
    03:00Ясно и безоблачно+8°C63 %754 мм2.8 м/с2 %
    06:00Ясно и безоблачно+9°C71 %754 мм2.6 м/с2 %
    09:00Ясно и безоблачно+17°C52 %753 мм2.5 м/с2 %
    12:00Ясно и безоблачно+21°C38 %753 мм2.6 м/с2 %
    15:00Ясно и безоблачно+23°C35 %752 мм2.8 м/с2 %
    18:00Ясно и безоблачно+23°C39 %750 мм2.4 м/с2 %
    21:00Ясно и безоблачно+17°C69 %750 мм2.1 м/с2 %
  • 26мая
    Воскресенье
    +8°
    +24°
    Пасмурно, дожди с грозами
    ВремяПогодаТемператураВлажностьДавлениеВетер, м/сВероятность осадков
    00:00Ясно и безоблачно+12°C78 %750 мм2.0 м/с2 %
    03:00Ясно и безоблачно+11°C76 %749 мм2.6 м/с2 %
    06:00Облачно с прояснениями+12°C77 %749 мм2.2 м/с3 %
    09:00Практически безоблачно+20°C56 %750 мм1.8 м/с7 %
    12:00Облачно с прояснениями+23°C45 %750 мм3.9 м/с36 %
    15:00Пасмурно, дожди с грозами+19°C74 %750 мм3.4 м/с50 %
    18:00Облачно с прояснениями, небольшой дождь+20°C72 %750 мм1.7 м/с56 %
    21:00Небольшая облачность+18°C83 %750 мм1.8 м/с24 %
Мы используем cookies
Соглашаюсь